sensor_id;sensor_type;location;lat;lon;timestamp;pressure;altitude;pressure_sealevel;temperature;humidity
75740;BME280;64357;51.344;6.550;2024-02-14T00:00:33;101051.31;;;9.78;100.00
75740;BME280;64357;51.344;6.550;2024-02-14T00:03:01;101050.22;;;9.92;100.00
75740;BME280;64357;51.344;6.550;2024-02-14T00:05:27;101059.91;;;10.03;100.00
75740;BME280;64357;51.344;6.550;2024-02-14T00:07:55;101060.06;;;10.05;100.00
75740;BME280;64357;51.344;6.550;2024-02-14T00:10:20;101054.88;;;9.96;100.00
75740;BME280;64357;51.344;6.550;2024-02-14T00:12:46;101056.06;;;9.91;100.00
75740;BME280;64357;51.344;6.550;2024-02-14T00:15:12;101051.50;;;10.04;100.00
75740;BME280;64357;51.344;6.550;2024-02-14T00:17:41;101049.47;;;9.93;100.00
75740;BME280;64357;51.344;6.550;2024-02-14T00:20:07;101056.91;;;10.07;100.00
75740;BME280;64357;51.344;6.550;2024-02-14T00:22:35;101046.19;;;10.19;100.00
75740;BME280;64357;51.344;6.550;2024-02-14T00:25:03;101060.44;;;10.17;100.00
75740;BME280;64357;51.344;6.550;2024-02-14T00:27:29;101053.72;;;10.01;100.00
75740;BME280;64357;51.344;6.550;2024-02-14T00:29:58;101058.25;;;10.04;100.00
75740;BME280;64357;51.344;6.550;2024-02-14T00:32:24;101050.22;;;9.92;100.00
75740;BME280;64357;51.344;6.550;2024-02-14T00:34:49;101044.91;;;10.06;100.00
75740;BME280;64357;51.344;6.550;2024-02-14T00:37:15;101052.16;;;10.10;100.00
75740;BME280;64357;51.344;6.550;2024-02-14T00:39:40;101045.81;;;10.07;100.00
75740;BME280;64357;51.344;6.550;2024-02-14T00:42:08;101047.53;;;10.15;100.00
75740;BME280;64357;51.344;6.550;2024-02-14T00:44:33;101049.06;;;9.97;100.00
75740;BME280;64357;51.344;6.550;2024-02-14T00:46:59;101042.59;;;10.01;100.00
75740;BME280;64357;51.344;6.550;2024-02-14T00:49:25;101049.59;;;10.10;100.00
75740;BME280;64357;51.344;6.550;2024-02-14T00:51:51;101037.75;;;10.20;100.00
75740;BME280;64357;51.344;6.550;2024-02-14T00:54:18;101038.66;;;9.96;100.00
75740;BME280;64357;51.344;6.550;2024-02-14T00:56:43;101036.75;;;10.02;100.00
75740;BME280;64357;51.344;6.550;2024-02-14T00:59:09;101034.56;;;9.89;100.00
75740;BME280;64357;51.344;6.550;2024-02-14T01:01:35;101028.56;;;10.13;100.00
75740;BME280;64357;51.344;6.550;2024-02-14T01:04:00;101019.25;;;10.13;100.00
75740;BME280;64357;51.344;6.550;2024-02-14T01:06:30;101011.16;;;10.09;100.00
75740;BME280;64357;51.344;6.550;2024-02-14T01:08:58;101004.06;;;10.06;100.00
75740;BME280;64357;51.344;6.550;2024-02-14T01:11:25;101014.97;;;10.21;100.00
75740;BME280;64357;51.344;6.550;2024-02-14T01:13:53;101012.91;;;10.26;100.00
75740;BME280;64357;51.344;6.550;2024-02-14T01:16:18;101005.25;;;10.26;100.00
75740;BME280;64357;51.344;6.550;2024-02-14T01:18:46;101012.41;;;10.21;100.00
75740;BME280;64357;51.344;6.550;2024-02-14T01:21:12;101009.78;;;10.28;100.00
75740;BME280;64357;51.344;6.550;2024-02-14T01:23:37;101011.59;;;10.29;100.00
75740;BME280;64357;51.344;6.550;2024-02-14T01:26:03;101011.16;;;10.33;100.00
75740;BME280;64357;51.344;6.550;2024-02-14T01:28:31;101008.75;;;10.35;100.00
75740;BME280;64357;51.344;6.550;2024-02-14T01:30:57;100998.59;;;10.44;100.00
75740;BME280;64357;51.344;6.550;2024-02-14T01:33:23;101004.91;;;10.47;100.00
75740;BME280;64357;51.344;6.550;2024-02-14T01:35:48;101006.69;;;10.48;100.00
75740;BME280;64357;51.344;6.550;2024-02-14T01:38:13;101008.69;;;10.59;100.00
75740;BME280;64357;51.344;6.550;2024-02-14T01:40:42;101007.81;;;10.59;100.00
75740;BME280;64357;51.344;6.550;2024-02-14T01:43:09;101004.06;;;10.73;100.00
75740;BME280;64357;51.344;6.550;2024-02-14T01:45:39;101003.03;;;10.62;100.00
75740;BME280;64357;51.344;6.550;2024-02-14T01:48:05;101009.47;;;10.58;100.00
75740;BME280;64357;51.344;6.550;2024-02-14T01:50:33;101001.78;;;10.58;100.00
75740;BME280;64357;51.344;6.550;2024-02-14T01:53:02;101003.91;;;10.62;100.00
75740;BME280;64357;51.344;6.550;2024-02-14T01:55:30;100999.09;;;10.65;100.00
75740;BME280;64357;51.344;6.550;2024-02-14T01:57:55;101001.50;;;10.64;100.00
75740;BME280;64357;51.344;6.550;2024-02-14T02:00:21;100999.56;;;10.61;100.00
75740;BME280;64357;51.344;6.550;2024-02-14T02:02:49;100997.91;;;10.71;100.00
75740;BME280;64357;51.344;6.550;2024-02-14T02:05:14;101000.34;;;10.78;100.00
75740;BME280;64357;51.344;6.550;2024-02-14T02:07:43;101002.91;;;10.78;100.00
75740;BME280;64357;51.344;6.550;2024-02-14T02:10:14;101008.28;;;10.72;100.00
75740;BME280;64357;51.344;6.550;2024-02-14T02:12:39;101001.56;;;10.81;100.00
75740;BME280;64357;51.344;6.550;2024-02-14T02:15:06;101001.09;;;10.68;100.00
75740;BME280;64357;51.344;6.550;2024-02-14T02:17:34;101003.22;;;10.81;100.00
75740;BME280;64357;51.344;6.550;2024-02-14T02:20:00;101002.94;;;10.86;100.00
75740;BME280;64357;51.344;6.550;2024-02-14T02:22:25;100998.97;;;10.73;100.00
75740;BME280;64357;51.344;6.550;2024-02-14T02:24:51;100998.88;;;10.88;100.00
75740;BME280;64357;51.344;6.550;2024-02-14T02:27:16;100999.59;;;10.79;100.00
75740;BME280;64357;51.344;6.550;2024-02-14T02:29:42;100987.13;;;10.73;100.00
75740;BME280;64357;51.344;6.550;2024-02-14T02:32:07;101007.91;;;10.93;100.00
75740;BME280;64357;51.344;6.550;2024-02-14T02:34:34;100998.13;;;10.89;100.00
75740;BME280;64357;51.344;6.550;2024-02-14T02:37:01;100996.94;;;10.94;100.00
75740;BME280;64357;51.344;6.550;2024-02-14T02:39:31;100995.88;;;10.92;100.00
75740;BME280;64357;51.344;6.550;2024-02-14T02:41:59;100999.34;;;11.02;100.00
75740;BME280;64357;51.344;6.550;2024-02-14T02:44:24;100991.97;;;10.87;100.00
75740;BME280;64357;51.344;6.550;2024-02-14T02:46:52;100996.44;;;10.81;100.00
75740;BME280;64357;51.344;6.550;2024-02-14T02:49:21;101007.16;;;10.94;100.00
75740;BME280;64357;51.344;6.550;2024-02-14T02:51:46;100997.06;;;10.96;100.00
75740;BME280;64357;51.344;6.550;2024-02-14T02:54:11;100997.25;;;11.06;100.00
75740;BME280;64357;51.344;6.550;2024-02-14T02:56:37;100978.25;;;10.70;100.00
75740;BME280;64357;51.344;6.550;2024-02-14T02:59:02;100994.94;;;10.83;100.00
75740;BME280;64357;51.344;6.550;2024-02-14T03:01:28;100998.00;;;10.97;100.00
75740;BME280;64357;51.344;6.550;2024-02-14T03:03:56;100990.31;;;10.88;100.00
75740;BME280;64357;51.344;6.550;2024-02-14T03:06:25;100994.91;;;10.66;100.00
75740;BME280;64357;51.344;6.550;2024-02-14T03:08:51;101002.13;;;10.70;100.00
75740;BME280;64357;51.344;6.550;2024-02-14T03:11:18;101005.16;;;10.75;100.00
75740;BME280;64357;51.344;6.550;2024-02-14T03:13:46;100995.09;;;10.76;100.00
75740;BME280;64357;51.344;6.550;2024-02-14T03:16:16;100997.91;;;10.71;100.00
75740;BME280;64357;51.344;6.550;2024-02-14T03:18:42;101001.56;;;10.81;100.00
75740;BME280;64357;51.344;6.550;2024-02-14T03:21:10;100999.44;;;10.68;100.00
75740;BME280;64357;51.344;6.550;2024-02-14T03:23:37;100999.53;;;10.53;100.00
75740;BME280;64357;51.344;6.550;2024-02-14T03:26:02;100993.69;;;10.62;100.00
75740;BME280;64357;51.344;6.550;2024-02-14T03:28:33;100988.53;;;10.54;100.00
75740;BME280;64357;51.344;6.550;2024-02-14T03:30:58;101000.91;;;10.66;100.00
75740;BME280;64357;51.344;6.550;2024-02-14T03:33:26;100997.28;;;10.56;100.00
75740;BME280;64357;51.344;6.550;2024-02-14T03:35:56;100980.25;;;10.48;100.00
75740;BME280;64357;51.344;6.550;2024-02-14T03:38:28;100986.00;;;10.54;100.00
75740;BME280;64357;51.344;6.550;2024-02-14T03:40:56;100984.84;;;10.67;100.00
75740;BME280;64357;51.344;6.550;2024-02-14T03:43:24;100978.53;;;10.73;100.00
75740;BME280;64357;51.344;6.550;2024-02-14T03:45:50;101001.22;;;10.70;100.00
75740;BME280;64357;51.344;6.550;2024-02-14T03:48:16;100996.00;;;10.77;100.00
75740;BME280;64357;51.344;6.550;2024-02-14T03:50:42;100990.44;;;10.89;100.00
75740;BME280;64357;51.344;6.550;2024-02-14T03:53:10;101000.53;;;10.88;100.00
75740;BME280;64357;51.344;6.550;2024-02-14T03:55:40;100999.75;;;10.80;100.00
75740;BME280;64357;51.344;6.550;2024-02-14T03:58:05;100993.91;;;10.90;100.00
75740;BME280;64357;51.344;6.550;2024-02-14T04:00:34;100991.81;;;10.86;100.00
75740;BME280;64357;51.344;6.550;2024-02-14T04:03:00;100988.34;;;10.85;100.00
75740;BME280;64357;51.344;6.550;2024-02-14T04:05:27;100998.59;;;10.85;100.00
75740;BME280;64357;51.344;6.550;2024-02-14T04:07:55;100995.13;;;10.93;100.00
75740;BME280;64357;51.344;6.550;2024-02-14T04:10:21;101004.91;;;10.98;100.00
75740;BME280;64357;51.344;6.550;2024-02-14T04:12:47;101008.66;;;10.92;100.00
75740;BME280;64357;51.344;6.550;2024-02-14T04:15:15;100994.22;;;10.93;100.00
75740;BME280;64357;51.344;6.550;2024-02-14T04:17:40;101006.25;;;10.94;100.00
75740;BME280;64357;51.344;6.550;2024-02-14T04:20:06;101000.72;;;10.98;100.00
75740;BME280;64357;51.344;6.550;2024-02-14T04:22:34;101006.88;;;10.91;100.00
75740;BME280;64357;51.344;6.550;2024-02-14T04:24:59;101002.16;;;10.79;100.00
75740;BME280;64357;51.344;6.550;2024-02-14T04:27:25;100999.63;;;10.87;100.00
75740;BME280;64357;51.344;6.550;2024-02-14T04:29:50;101008.00;;;10.78;100.00
75740;BME280;64357;51.344;6.550;2024-02-14T04:32:15;100996.03;;;10.85;100.00
75740;BME280;64357;51.344;6.550;2024-02-14T04:34:41;101012.13;;;10.93;100.00
75740;BME280;64357;51.344;6.550;2024-02-14T04:37:09;101004.88;;;10.89;100.00
75740;BME280;64357;51.344;6.550;2024-02-14T04:39:39;101011.97;;;10.91;100.00
75740;BME280;64357;51.344;6.550;2024-02-14T04:42:07;101013.91;;;10.94;100.00
75740;BME280;64357;51.344;6.550;2024-02-14T04:44:33;101024.19;;;11.03;100.00
75740;BME280;64357;51.344;6.550;2024-02-14T04:46:59;101018.00;;;11.01;100.00
75740;BME280;64357;51.344;6.550;2024-02-14T04:49:25;101037.97;;;10.96;100.00
75740;BME280;64357;51.344;6.550;2024-02-14T04:51:51;101027.47;;;11.02;100.00
75740;BME280;64357;51.344;6.550;2024-02-14T04:54:19;101028.81;;;10.98;100.00
75740;BME280;64357;51.344;6.550;2024-02-14T04:56:51;101034.66;;;10.88;100.00
75740;BME280;64357;51.344;6.550;2024-02-14T04:59:19;101041.59;;;10.98;100.00
75740;BME280;64357;51.344;6.550;2024-02-14T05:01:44;101046.53;;;10.88;100.00
75740;BME280;64357;51.344;6.550;2024-02-14T05:04:10;101052.25;;;10.94;100.00
75740;BME280;64357;51.344;6.550;2024-02-14T05:06:39;101043.53;;;10.92;100.00
75740;BME280;64357;51.344;6.550;2024-02-14T05:09:06;101054.06;;;10.95;100.00
75740;BME280;64357;51.344;6.550;2024-02-14T05:11:35;101048.19;;;10.87;100.00
75740;BME280;64357;51.344;6.550;2024-02-14T05:14:03;101032.84;;;10.96;100.00
75740;BME280;64357;51.344;6.550;2024-02-14T05:16:31;101051.38;;;11.02;100.00
75740;BME280;64357;51.344;6.550;2024-02-14T05:18:58;101061.25;;;10.90;100.00
75740;BME280;64357;51.344;6.550;2024-02-14T05:21:24;101053.91;;;10.93;100.00
75740;BME280;64357;51.344;6.550;2024-02-14T05:23:49;101062.81;;;10.97;100.00
75740;BME280;64357;51.344;6.550;2024-02-14T05:26:15;101057.28;;;11.10;100.00
75740;BME280;64357;51.344;6.550;2024-02-14T05:28:43;101056.81;;;11.14;100.00
75740;BME280;64357;51.344;6.550;2024-02-14T05:31:10;101068.50;;;10.94;100.00
75740;BME280;64357;51.344;6.550;2024-02-14T05:33:38;101053.16;;;10.94;100.00
75740;BME280;64357;51.344;6.550;2024-02-14T05:36:04;101069.41;;;10.95;100.00
75740;BME280;64357;51.344;6.550;2024-02-14T05:38:31;101061.09;;;10.89;100.00
75740;BME280;64357;51.344;6.550;2024-02-14T05:40:58;101072.91;;;11.04;100.00
75740;BME280;64357;51.344;6.550;2024-02-14T05:43:24;101065.16;;;10.87;100.00
75740;BME280;64357;51.344;6.550;2024-02-14T05:45:49;101066.69;;;11.02;100.00
75740;BME280;64357;51.344;6.550;2024-02-14T05:48:14;101071.09;;;11.03;100.00
75740;BME280;64357;51.344;6.550;2024-02-14T05:50:40;101065.47;;;10.90;100.00
75740;BME280;64357;51.344;6.550;2024-02-14T05:53:05;101066.22;;;10.89;100.00
75740;BME280;64357;51.344;6.550;2024-02-14T05:55:31;101059.44;;;10.81;100.00
75740;BME280;64357;51.344;6.550;2024-02-14T05:58:00;101060.63;;;10.84;100.00
75740;BME280;64357;51.344;6.550;2024-02-14T06:00:27;101066.53;;;10.92;100.00
75740;BME280;64357;51.344;6.550;2024-02-14T06:02:56;101065.66;;;10.91;100.00
75740;BME280;64357;51.344;6.550;2024-02-14T06:05:23;101074.97;;;11.00;100.00
75740;BME280;64357;51.344;6.550;2024-02-14T06:07:49;101062.53;;;11.11;100.00
75740;BME280;64357;51.344;6.550;2024-02-14T06:10:15;101059.03;;;11.02;100.00
75740;BME280;64357;51.344;6.550;2024-02-14T06:12:41;101073.19;;;11.07;100.00
75740;BME280;64357;51.344;6.550;2024-02-14T06:15:10;101077.16;;;11.21;100.00
75740;BME280;64357;51.344;6.550;2024-02-14T06:17:36;101064.94;;;11.18;100.00
75740;BME280;64357;51.344;6.550;2024-02-14T06:20:04;101052.59;;;10.97;100.00
75740;BME280;64357;51.344;6.550;2024-02-14T06:22:33;101077.25;;;11.14;100.00
75740;BME280;64357;51.344;6.550;2024-02-14T06:25:04;101084.78;;;11.12;100.00
75740;BME280;64357;51.344;6.550;2024-02-14T06:27:31;101066.59;;;11.09;100.00
75740;BME280;64357;51.344;6.550;2024-02-14T06:30:01;101087.47;;;10.97;100.00
75740;BME280;64357;51.344;6.550;2024-02-14T06:32:33;101078.91;;;11.05;100.00
75740;BME280;64357;51.344;6.550;2024-02-14T06:35:01;101075.25;;;10.94;100.00
75740;BME280;64357;51.344;6.550;2024-02-14T06:37:27;101082.97;;;11.03;100.00
75740;BME280;64357;51.344;6.550;2024-02-14T06:39:52;101096.03;;;10.97;100.00
75740;BME280;64357;51.344;6.550;2024-02-14T06:42:17;101101.34;;;11.16;100.00
75740;BME280;64357;51.344;6.550;2024-02-14T06:44:45;101084.44;;;11.01;100.00
75740;BME280;64357;51.344;6.550;2024-02-14T06:47:11;101096.59;;;10.94;100.00
75740;BME280;64357;51.344;6.550;2024-02-14T06:49:39;101094.94;;;10.86;100.00
75740;BME280;64357;51.344;6.550;2024-02-14T06:52:05;101104.75;;;10.99;100.00
75740;BME280;64357;51.344;6.550;2024-02-14T06:54:32;101089.72;;;11.02;100.00
75740;BME280;64357;51.344;6.550;2024-02-14T06:56:58;101108.06;;;11.07;100.00
75740;BME280;64357;51.344;6.550;2024-02-14T06:59:28;101110.34;;;11.04;100.00
75740;BME280;64357;51.344;6.550;2024-02-14T07:01:53;101108.97;;;11.07;100.00
75740;BME280;64357;51.344;6.550;2024-02-14T07:04:21;101114.72;;;11.13;100.00
75740;BME280;64357;51.344;6.550;2024-02-14T07:06:53;101106.47;;;11.16;100.00
75740;BME280;64357;51.344;6.550;2024-02-14T07:09:18;101120.44;;;11.11;100.00
75740;BME280;64357;51.344;6.550;2024-02-14T07:11:44;101121.06;;;11.26;100.00
75740;BME280;64357;51.344;6.550;2024-02-14T07:14:11;101122.16;;;11.28;100.00
75740;BME280;64357;51.344;6.550;2024-02-14T07:16:36;101125.59;;;11.37;100.00
75740;BME280;64357;51.344;6.550;2024-02-14T07:19:01;101125.59;;;11.28;100.00
75740;BME280;64357;51.344;6.550;2024-02-14T07:21:29;101133.00;;;11.34;100.00
75740;BME280;64357;51.344;6.550;2024-02-14T07:23:54;101135.84;;;11.37;100.00
75740;BME280;64357;51.344;6.550;2024-02-14T07:26:20;101130.91;;;11.47;100.00
75740;BME280;64357;51.344;6.550;2024-02-14T07:28:45;101135.56;;;11.42;100.00
75740;BME280;64357;51.344;6.550;2024-02-14T07:31:11;101131.81;;;11.39;100.00
75740;BME280;64357;51.344;6.550;2024-02-14T07:33:36;101135.25;;;11.48;100.00
75740;BME280;64357;51.344;6.550;2024-02-14T07:36:02;101144.63;;;11.65;100.00
75740;BME280;64357;51.344;6.550;2024-02-14T07:38:27;101135.44;;;11.58;100.00
75740;BME280;64357;51.344;6.550;2024-02-14T07:40:53;101138.00;;;11.58;100.00
75740;BME280;64357;51.344;6.550;2024-02-14T07:43:18;101147.47;;;11.51;100.00
75740;BME280;64357;51.344;6.550;2024-02-14T07:45:43;101146.28;;;11.56;100.00
75740;BME280;64357;51.344;6.550;2024-02-14T07:48:09;101126.44;;;11.70;100.00
75740;BME280;64357;51.344;6.550;2024-02-14T07:50:34;101145.72;;;11.84;100.00
75740;BME280;64357;51.344;6.550;2024-02-14T07:53:00;101142.81;;;11.72;100.00
75740;BME280;64357;51.344;6.550;2024-02-14T07:55:28;101123.69;;;11.60;100.00
75740;BME280;64357;51.344;6.550;2024-02-14T07:57:54;101141.91;;;11.72;100.00
75740;BME280;64357;51.344;6.550;2024-02-14T08:00:19;101149.22;;;11.93;100.00
75740;BME280;64357;51.344;6.550;2024-02-14T08:02:51;101140.78;;;11.86;100.00
75740;BME280;64357;51.344;6.550;2024-02-14T08:05:17;101135.34;;;11.83;100.00
75740;BME280;64357;51.344;6.550;2024-02-14T08:07:44;101116.19;;;11.62;100.00
75740;BME280;64357;51.344;6.550;2024-02-14T08:10:09;101144.66;;;11.73;100.00
75740;BME280;64357;51.344;6.550;2024-02-14T08:12:35;101162.16;;;11.95;100.00
75740;BME280;64357;51.344;6.550;2024-02-14T08:15:00;101151.31;;;12.06;100.00
75740;BME280;64357;51.344;6.550;2024-02-14T08:17:29;101143.34;;;12.12;100.00
75740;BME280;64357;51.344;6.550;2024-02-14T08:19:55;101150.88;;;12.01;100.00
75740;BME280;64357;51.344;6.550;2024-02-14T08:22:20;101156.16;;;12.03;100.00
75740;BME280;64357;51.344;6.550;2024-02-14T08:24:46;101157.63;;;12.01;100.00
75740;BME280;64357;51.344;6.550;2024-02-14T08:27:13;101157.66;;;12.10;100.00
75740;BME280;64357;51.344;6.550;2024-02-14T08:29:38;101155.69;;;11.90;100.00
75740;BME280;64357;51.344;6.550;2024-02-14T08:32:06;101161.88;;;11.92;100.00
75740;BME280;64357;51.344;6.550;2024-02-14T08:34:34;101165.78;;;12.06;100.00
75740;BME280;64357;51.344;6.550;2024-02-14T08:37:01;101166.97;;;12.00;100.00
75740;BME280;64357;51.344;6.550;2024-02-14T08:39:29;101157.22;;;12.14;100.00
75740;BME280;64357;51.344;6.550;2024-02-14T08:41:57;101174.81;;;12.19;100.00
75740;BME280;64357;51.344;6.550;2024-02-14T08:44:23;101170.00;;;12.05;100.00
75740;BME280;64357;51.344;6.550;2024-02-14T08:46:48;101174.38;;;12.06;100.00
75740;BME280;64357;51.344;6.550;2024-02-14T08:49:14;101166.53;;;11.96;100.00
75740;BME280;64357;51.344;6.550;2024-02-14T08:51:39;101179.03;;;12.10;100.00
75740;BME280;64357;51.344;6.550;2024-02-14T08:54:05;101178.72;;;12.07;100.00
75740;BME280;64357;51.344;6.550;2024-02-14T08:56:36;101157.81;;;12.11;100.00
75740;BME280;64357;51.344;6.550;2024-02-14T08:59:02;101174.50;;;12.08;100.00
75740;BME280;64357;51.344;6.550;2024-02-14T09:01:29;101150.88;;;12.01;100.00
75740;BME280;64357;51.344;6.550;2024-02-14T09:03:54;101158.69;;;12.29;100.00
75740;BME280;64357;51.344;6.550;2024-02-14T09:06:24;101176.03;;;12.32;100.00
75740;BME280;64357;51.344;6.550;2024-02-14T09:08:49;101170.28;;;12.34;100.00
75740;BME280;64357;51.344;6.550;2024-02-14T09:11:21;101173.91;;;12.27;100.00
75740;BME280;64357;51.344;6.550;2024-02-14T09:13:48;101172.84;;;12.43;100.00
75740;BME280;64357;51.344;6.550;2024-02-14T09:16:14;101177.50;;;12.47;100.00
75740;BME280;64357;51.344;6.550;2024-02-14T09:18:41;101176.44;;;12.62;100.00
75740;BME280;64357;51.344;6.550;2024-02-14T09:21:06;101169.94;;;12.66;100.00
75740;BME280;64357;51.344;6.550;2024-02-14T09:23:32;101180.13;;;12.83;100.00
75740;BME280;64357;51.344;6.550;2024-02-14T09:25:58;101177.16;;;12.78;100.00
75740;BME280;64357;51.344;6.550;2024-02-14T09:28:23;101183.78;;;12.85;100.00
75740;BME280;64357;51.344;6.550;2024-02-14T09:30:52;101165.38;;;12.80;100.00
75740;BME280;64357;51.344;6.550;2024-02-14T09:33:18;101174.38;;;12.94;100.00
75740;BME280;64357;51.344;6.550;2024-02-14T09:35:43;101176.88;;;13.12;100.00
75740;BME280;64357;51.344;6.550;2024-02-14T09:38:13;101195.47;;;13.09;100.00
75740;BME280;64357;51.344;6.550;2024-02-14T09:40:42;101193.81;;;13.10;100.00
75740;BME280;64357;51.344;6.550;2024-02-14T09:43:16;101181.09;;;13.20;100.00
75740;BME280;64357;51.344;6.550;2024-02-14T09:45:43;101193.13;;;13.29;100.00
75740;BME280;64357;51.344;6.550;2024-02-14T09:48:09;101195.38;;;13.35;100.00
75740;BME280;64357;51.344;6.550;2024-02-14T09:50:38;101205.84;;;13.19;100.00
75740;BME280;64357;51.344;6.550;2024-02-14T09:53:07;101205.03;;;13.38;100.00
75740;BME280;64357;51.344;6.550;2024-02-14T09:55:32;101215.06;;;13.26;100.00
75740;BME280;64357;51.344;6.550;2024-02-14T09:58:00;101205.59;;;13.07;100.00
75740;BME280;64357;51.344;6.550;2024-02-14T10:00:31;101198.56;;;12.79;100.00
75740;BME280;64357;51.344;6.550;2024-02-14T10:02:57;101204.97;;;13.01;100.00
75740;BME280;64357;51.344;6.550;2024-02-14T10:05:22;101204.16;;;13.37;100.00
75740;BME280;64357;51.344;6.550;2024-02-14T10:07:48;101201.59;;;13.28;100.00
75740;BME280;64357;51.344;6.550;2024-02-14T10:10:16;101186.97;;;13.19;100.00
75740;BME280;64357;51.344;6.550;2024-02-14T10:12:42;101211.84;;;13.37;100.00
75740;BME280;64357;51.344;6.550;2024-02-14T10:15:08;101214.53;;;13.39;100.00
75740;BME280;64357;51.344;6.550;2024-02-14T10:17:34;101212.59;;;13.19;100.00
75740;BME280;64357;51.344;6.550;2024-02-14T10:20:05;101218.28;;;13.42;100.00
75740;BME280;64357;51.344;6.550;2024-02-14T10:22:38;101214.59;;;13.13;100.00
75740;BME280;64357;51.344;6.550;2024-02-14T10:25:04;101219.78;;;13.04;100.00
75740;BME280;64357;51.344;6.550;2024-02-14T10:27:40;101218.09;;;13.04;100.00
75740;BME280;64357;51.344;6.550;2024-02-14T10:30:09;101222.63;;;13.52;100.00
75740;BME280;64357;51.344;6.550;2024-02-14T10:32:35;101229.03;;;13.66;100.00
75740;BME280;64357;51.344;6.550;2024-02-14T10:35:04;101215.09;;;14.00;100.00
75740;BME280;64357;51.344;6.550;2024-02-14T10:37:36;101220.22;;;14.00;100.00
75740;BME280;64357;51.344;6.550;2024-02-14T10:40:02;101212.72;;;13.93;100.00
75740;BME280;64357;51.344;6.550;2024-02-14T10:42:30;101212.28;;;13.88;100.00
75740;BME280;64357;51.344;6.550;2024-02-14T10:44:58;101212.59;;;13.91;100.00
75740;BME280;64357;51.344;6.550;2024-02-14T10:47:29;101200.69;;;13.83;100.00
75740;BME280;64357;51.344;6.550;2024-02-14T10:49:59;101207.78;;;13.85;100.00
75740;BME280;64357;51.344;6.550;2024-02-14T10:52:27;101211.38;;;13.69;100.00
75740;BME280;64357;51.344;6.550;2024-02-14T10:54:56;101224.78;;;13.94;100.00
75740;BME280;64357;51.344;6.550;2024-02-14T10:57:24;101219.97;;;14.16;100.00
75740;BME280;64357;51.344;6.550;2024-02-14T10:59:51;101219.69;;;14.31;100.00
75740;BME280;64357;51.344;6.550;2024-02-14T11:02:19;101225.19;;;14.26;100.00
75740;BME280;64357;51.344;6.550;2024-02-14T11:04:45;101207.94;;;14.06;100.00
75740;BME280;64357;51.344;6.550;2024-02-14T11:07:10;101229.97;;;14.31;100.00
75740;BME280;64357;51.344;6.550;2024-02-14T11:09:36;101227.13;;;14.09;100.00
75740;BME280;64357;51.344;6.550;2024-02-14T11:12:06;101216.75;;;13.99;100.00
75740;BME280;64357;51.344;6.550;2024-02-14T11:14:32;101222.88;;;14.29;100.00
75740;BME280;64357;51.344;6.550;2024-02-14T11:17:13;101231.59;;;13.93;100.00
75740;BME280;64357;51.344;6.550;2024-02-14T11:19:45;101214.31;;;14.01;100.00
75740;BME280;64357;51.344;6.550;2024-02-14T11:22:12;101218.59;;;14.19;100.00
75740;BME280;64357;51.344;6.550;2024-02-14T11:24:38;101235.50;;;13.98;100.00
75740;BME280;64357;51.344;6.550;2024-02-14T11:27:10;101219.72;;;13.85;100.00
75740;BME280;64357;51.344;6.550;2024-02-14T11:29:35;101231.63;;;14.12;100.00
75740;BME280;64357;51.344;6.550;2024-02-14T11:32:01;101215.38;;;14.03;100.00
75740;BME280;64357;51.344;6.550;2024-02-14T11:34:27;101229.00;;;14.02;100.00
75740;BME280;64357;51.344;6.550;2024-02-14T11:36:56;101217.72;;;13.91;100.00
75740;BME280;64357;51.344;6.550;2024-02-14T11:39:21;101205.94;;;14.31;100.00
75740;BME280;64357;51.344;6.550;2024-02-14T11:41:46;101214.03;;;14.35;100.00
75740;BME280;64357;51.344;6.550;2024-02-14T11:44:12;101216.38;;;14.13;100.00
75740;BME280;64357;51.344;6.550;2024-02-14T11:46:40;101205.31;;;14.33;100.00
75740;BME280;64357;51.344;6.550;2024-02-14T11:49:07;101212.13;;;14.52;100.00
75740;BME280;64357;51.344;6.550;2024-02-14T11:51:33;101201.19;;;14.35;100.00
75740;BME280;64357;51.344;6.550;2024-02-14T11:54:03;101207.41;;;14.37;100.00
75740;BME280;64357;51.344;6.550;2024-02-14T11:56:38;101208.84;;;14.06;100.00
75740;BME280;64357;51.344;6.550;2024-02-14T11:59:06;101216.88;;;14.01;100.00
75740;BME280;64357;51.344;6.550;2024-02-14T12:01:34;101209.06;;;13.72;100.00
75740;BME280;64357;51.344;6.550;2024-02-14T12:04:01;101217.97;;;13.75;100.00
75740;BME280;64357;51.344;6.550;2024-02-14T12:06:31;101223.00;;;13.93;100.00
75740;BME280;64357;51.344;6.550;2024-02-14T12:08:59;101204.97;;;14.01;100.00
75740;BME280;64357;51.344;6.550;2024-02-14T12:11:33;101217.22;;;13.95;100.00
75740;BME280;64357;51.344;6.550;2024-02-14T12:14:05;101216.44;;;13.77;100.00
75740;BME280;64357;51.344;6.550;2024-02-14T12:16:37;101217.44;;;14.07;100.00
75740;BME280;64357;51.344;6.550;2024-02-14T12:19:09;101205.72;;;14.00;100.00
75740;BME280;64357;51.344;6.550;2024-02-14T12:21:39;101205.56;;;14.18;100.00
75740;BME280;64357;51.344;6.550;2024-02-14T12:24:09;101199.84;;;14.01;100.00
75740;BME280;64357;51.344;6.550;2024-02-14T12:26:40;101203.34;;;13.93;100.00
75740;BME280;64357;51.344;6.550;2024-02-14T12:29:10;101210.72;;;13.71;100.00
75740;BME280;64357;51.344;6.550;2024-02-14T12:31:36;101198.78;;;13.72;100.00
75740;BME280;64357;51.344;6.550;2024-02-14T12:34:03;101210.72;;;13.71;100.00
75740;BME280;64357;51.344;6.550;2024-02-14T12:36:30;101208.63;;;13.95;100.00
75740;BME280;64357;51.344;6.550;2024-02-14T12:38:56;101196.88;;;13.88;100.00